Time;durP1;ratioP1;P1;durP2;ratioP2;P2;SDS_P1;SDS_P2;PMS_P1;PMS_P2;Temp;Humidity;BMP_temperature;BMP_pressure;BME280_temperature;BME280_humidity;BME280_pressure;Samples;Min_cycle;Max_cycle;Signal;HPM_P1;HPM_P2
2023/10/17 00:01:00;;;;;;;7.30;2.00;;;;;;;9.65;79.42;100972.94;5038438;28;20115;-45
2023/10/17 00:03:26;;;;;;;4.45;1.42;;;;;;;9.63;79.38;100972.47;5030514;28;20052;-44
2023/10/17 00:05:56;;;;;;;7.50;1.23;;;;;;;9.63;79.56;100978.00;5030360;28;20046;-46
2023/10/17 00:08:27;;;;;;;4.20;1.98;;;;;;;9.63;79.49;100966.94;5033100;28;20049;-46
2023/10/17 00:10:57;;;;;;;5.13;1.42;;;;;;;9.62;79.44;100970.84;5029712;28;20049;-45
2023/10/17 00:15:58;;;;;;;6.22;2.28;;;;;;;9.60;79.50;100964.84;5029247;28;20052;-45
2023/10/17 00:18:26;;;;;;;5.22;1.42;;;;;;;9.61;79.56;100963.69;5029413;28;20482;-44
2023/10/17 00:20:53;;;;;;;7.00;1.95;;;;;;;9.61;79.64;100949.88;5029754;28;20049;-47
2023/10/17 00:23:20;;;;;;;10.65;1.65;;;;;;;9.62;79.53;100948.72;5029919;28;20068;-48
2023/10/17 00:25:49;;;;;;;4.70;1.85;;;;;;;9.63;79.61;100950.34;5026418;28;20041;-45
2023/10/17 00:28:20;;;;;;;10.05;2.17;;;;;;;9.64;79.69;100951.94;5029379;28;20045;-49
2023/10/17 00:30:51;;;;;;;4.00;1.45;;;;;;;9.63;79.69;100955.88;5029929;28;20510;-44
2023/10/17 00:33:21;;;;;;;12.40;2.10;;;;;;;9.65;79.77;100961.88;5029705;28;20053;-47
2023/10/17 00:35:48;;;;;;;4.60;1.58;;;;;;;9.66;79.88;100956.00;5029513;28;20493;-45
2023/10/17 00:38:15;;;;;;;10.65;2.20;;;;;;;9.68;79.81;100950.16;5031385;28;20045;-48
2023/10/17 00:40:51;;;;;;;7.95;2.80;;;;;;;9.70;79.84;100950.63;5029524;28;20080;-44
2023/10/17 00:43:23;;;;;;;8.90;2.28;;;;;;;9.68;79.84;100952.91;5028423;28;20077;-47
2023/10/17 00:45:49;;;;;;;5.50;2.33;;;;;;;9.68;80.05;100941.88;5028974;28;20187;-47
2023/10/17 00:48:20;;;;;;;6.00;2.70;;;;;;;9.65;79.88;100929.53;5025907;28;20111;-49
2023/10/17 00:50:50;;;;;;;8.73;2.72;;;;;;;9.64;80.02;100929.84;5032287;28;20057;-44
2023/10/17 00:53:18;;;;;;;10.55;2.95;;;;;;;9.64;80.24;100932.59;5035666;28;20384;-46
2023/10/17 00:55:52;;;;;;;5.47;1.63;;;;;;;9.65;80.15;100934.22;5033060;28;20137;-47
2023/10/17 00:58:21;;;;;;;6.43;1.58;;;;;;;9.68;80.38;100933.56;5029199;28;20128;-47
2023/10/17 01:00:53;;;;;;;10.13;2.92;;;;;;;9.70;80.29;100920.22;5019906;28;20050;-45
2023/10/17 01:03:21;;;;;;;10.55;2.35;;;;;;;9.69;80.35;100932.41;5027605;28;20099;-44
2023/10/17 01:08:44;;;;;;;5.15;1.73;;;;;;;9.69;80.35;100924.13;5036596;28;20573;-45
2023/10/17 01:11:20;;;;;;;5.70;2.65;;;;;;;9.70;80.27;100921.03;5038397;28;20036;-44
2023/10/17 01:13:54;;;;;;;4.75;1.70;;;;;;;9.71;80.19;100913.56;5036112;28;20052;-43
2023/10/17 01:16:24;;;;;;;6.78;2.20;;;;;;;9.71;80.13;100919.09;5013365;28;20072;-45
2023/10/17 01:18:51;;;;;;;7.53;1.90;;;;;;;9.71;80.04;100919.09;5031118;28;20037;-47
2023/10/17 01:21:18;;;;;;;5.50;2.15;;;;;;;9.71;80.06;100924.63;5028618;28;20209;-44
2023/10/17 01:23:47;;;;;;;6.70;2.05;;;;;;;9.70;79.88;100911.91;5029852;28;20041;-50
2023/10/17 01:26:20;;;;;;;5.63;1.70;;;;;;;9.68;80.05;100920.56;5033594;28;20127;-49
2023/10/17 01:28:48;;;;;;;3.03;1.63;;;;;;;9.68;79.91;100914.22;5034682;28;20072;-48
2023/10/17 01:31:22;;;;;;;3.70;1.83;;;;;;;9.67;79.81;100901.53;5038593;28;20045;-50
2023/10/17 01:33:59;;;;;;;5.15;2.00;;;;;;;9.66;79.86;100888.88;5034062;28;20056;-48
2023/10/17 01:36:26;;;;;;;11.35;2.08;;;;;;;9.67;79.81;100890.47;5032218;28;20380;-47
2023/10/17 01:38:54;;;;;;;2.85;1.40;;;;;;;9.64;79.80;100891.94;5028910;28;20038;-46
2023/10/17 01:41:22;;;;;;;5.57;1.67;;;;;;;9.66;79.72;100888.88;5029219;28;20049;-46
2023/10/17 01:43:50;;;;;;;3.60;1.80;;;;;;;9.66;79.64;100894.41;5027854;28;20045;-48
2023/10/17 01:46:23;;;;;;;4.88;1.85;;;;;;;9.65;79.46;100888.06;5029326;28;20041;-47
2023/10/17 01:48:53;;;;;;;2.85;1.83;;;;;;;9.65;79.60;100876.19;5038657;28;20133;-45
2023/10/17 01:51:24;;;;;;;5.13;2.20;;;;;;;9.64;79.32;100885.59;5040230;28;20457;-46
2023/10/17 01:53:51;;;;;;;3.05;1.45;;;;;;;9.66;79.43;100883.34;5027935;28;20397;-46
2023/10/17 01:56:20;;;;;;;3.17;1.10;;;;;;;9.69;79.27;100882.66;5028145;28;20069;-44
2023/10/17 01:58:51;;;;;;;6.15;1.40;;;;;;;9.70;79.15;100885.09;5031015;28;20064;-51
2023/10/17 02:01:24;;;;;;;10.30;2.97;;;;;;;9.70;79.08;100884.28;5039994;28;20079;-46
2023/10/17 02:03:52;;;;;;;2.47;1.42;;;;;;;9.70;78.99;100885.09;5016930;28;20481;-44
2023/10/17 02:06:22;;;;;;;4.60;1.23;;;;;;;9.72;78.97;100876.44;5030918;28;20057;-45
2023/10/17 02:08:49;;;;;;;14.57;3.17;;;;;;;9.70;78.85;100879.56;5038550;28;20402;-48
2023/10/17 02:11:26;;;;;;;3.10;1.40;;;;;;;9.73;78.75;100878.06;5027706;28;20055;-44
2023/10/17 02:13:56;;;;;;;4.90;1.75;;;;;;;9.75;78.80;100865.53;5029618;28;20477;-46
2023/10/17 02:16:32;;;;;;;4.20;1.10;;;;;;;9.77;78.67;100856.88;5030743;28;20465;-45
2023/10/17 02:18:59;;;;;;;7.05;2.03;;;;;;;9.79;78.56;100849.09;5027805;28;20514;-45
2023/10/17 02:21:27;;;;;;;8.70;1.45;;;;;;;9.79;78.39;100854.63;5034729;28;20120;-46
2023/10/17 02:23:54;;;;;;;7.03;1.95;;;;;;;9.78;78.44;100848.28;5035015;28;20817;-46
2023/10/17 02:26:22;;;;;;;5.50;1.83;;;;;;;9.79;78.49;100851.84;5026313;28;20041;-46
2023/10/17 02:28:59;;;;;;;7.30;1.67;;;;;;;9.78;78.39;100847.47;5020974;28;20132;-45
2023/10/17 02:31:29;;;;;;;5.43;2.00;;;;;;;9.78;78.33;100851.03;5019219;28;20077;-46
2023/10/17 02:33:56;;;;;;;3.67;1.58;;;;;;;9.80;78.42;100853.47;5039462;28;20053;-45
2023/10/17 02:36:23;;;;;;;6.82;1.42;;;;;;;9.81;78.31;100844.03;5029569;28;20050;-46
2023/10/17 02:38:50;;;;;;;3.72;1.50;;;;;;;9.82;78.22;100842.06;5030395;28;20049;-44
2023/10/17 02:41:24;;;;;;;3.63;1.58;;;;;;;9.80;78.22;100829.38;5027779;28;20442;-45
2023/10/17 02:43:55;;;;;;;6.22;1.88;;;;;;;9.82;78.33;100837.38;5015279;28;20060;-46
2023/10/17 02:46:28;;;;;;;4.32;1.20;;;;;;;9.83;78.06;100844.50;5019145;28;20046;-46
2023/10/17 02:48:56;;;;;;;5.47;1.25;;;;;;;9.83;77.79;100833.44;4994780;28;20042;-44
2023/10/17 02:53:56;;;;;;;4.88;1.35;;;;;;;9.85;78.27;100828.38;5008925;28;20037;-45
2023/10/17 02:56:23;;;;;;;6.00;1.38;;;;;;;9.84;78.27;100818.47;5027125;28;20037;-45
2023/10/17 02:59:06;;;;;;;4.85;1.50;;;;;;;9.84;78.25;100812.94;5027772;28;20442;-44
2023/10/17 03:01:52;;;;;;;;;;;;;;;9.84;78.25;100807.41;5131700;22;20497;-45
2023/10/17 03:04:23;;;;;;;4.00;1.50;;;;;;;9.84;78.27;100804.66;5060054;28;19931;-47
2023/10/17 03:06:59;;;;;;;2.72;1.20;;;;;;;9.85;78.32;100806.25;5060209;28;20045;-43
2023/10/17 03:14:36;;;;;;;7.78;1.60;;;;;;;9.90;78.37;100797.75;5063260;28;20045;-46
2023/10/17 03:17:03;;;;;;;4.47;1.15;;;;;;;9.89;78.34;100793.38;5069490;28;20043;-46
2023/10/17 03:19:30;;;;;;;5.80;1.60;;;;;;;9.88;78.50;100802.00;5068875;28;20063;-44
2023/10/17 03:22:00;;;;;;;3.95;2.33;;;;;;;9.88;78.47;100800.03;5061420;28;20045;-46
2023/10/17 03:24:44;;;;;;;5.03;1.45;;;;;;;9.89;78.44;100796.13;5068698;28;20032;-45
2023/10/17 03:27:11;;;;;;;4.45;1.83;;;;;;;9.88;78.56;100799.22;5068973;28;20043;-45
2023/10/17 03:29:46;;;;;;;4.32;1.45;;;;;;;9.86;78.51;100796.81;5055245;28;20048;-44
2023/10/17 03:32:15;;;;;;;6.75;1.50;;;;;;;9.84;78.58;100790.00;5067199;28;20476;-45
2023/10/17 03:34:45;;;;;;;9.05;2.22;;;;;;;9.82;78.60;100786.78;5063044;28;20064;-45
2023/10/17 03:39:54;;;;;;;3.30;1.15;;;;;;;9.80;78.74;100784.34;5056294;28;20452;-44
2023/10/17 03:42:43;;;;;;;3.65;1.45;;;;;;;9.78;78.68;100776.38;5064385;28;20051;-44
2023/10/17 03:45:13;;;;;;;6.45;1.40;;;;;;;9.77;78.65;100768.41;5060817;28;20169;-45
2023/10/17 03:47:40;;;;;;;4.30;1.67;;;;;;;9.77;78.64;100762.88;5058147;28;20041;-44
2023/10/17 03:50:14;;;;;;;3.83;1.25;;;;;;;9.75;78.73;100762.44;5061353;28;20045;-43
2023/10/17 03:52:41;;;;;;;6.95;1.67;;;;;;;9.76;78.77;100772.34;5067352;28;20044;-45
2023/10/17 03:55:10;;;;;;;3.30;1.88;;;;;;;9.75;78.93;100765.19;5048603;28;20184;-44
2023/10/17 03:57:52;;;;;;;1.60;1.50;;;;;;;9.75;79.05;100765.19;5058648;28;20040;-45
2023/10/17 04:00:25;;;;;;;7.07;2.58;;;;;;;9.76;78.96;100762.09;5058847;28;20040;-45
2023/10/17 04:02:52;;;;;;;7.53;2.25;;;;;;;9.76;79.03;100762.09;5062333;28;20044;-46
2023/10/17 04:05:22;;;;;;;3.03;1.40;;;;;;;9.75;78.99;100763.25;5064988;28;20509;-45
2023/10/17 04:07:52;;;;;;;4.93;1.60;;;;;;;9.73;79.14;100760.00;5064262;28;20493;-44
2023/10/17 04:10:20;;;;;;;4.80;1.30;;;;;;;9.72;79.40;100752.03;5058095;28;20132;-46
2023/10/17 04:13:12;;;;;;;4.57;1.35;;;;;;;9.71;79.32;100755.97;5063916;28;20035;-44
2023/10/17 04:15:42;;;;;;;2.88;1.00;;;;;;;9.71;79.37;100750.44;5055956;28;20469;-43
2023/10/17 04:18:11;;;;;;;5.00;1.98;;;;;;;9.70;79.39;100762.63;5060497;28;20044;-46
2023/10/17 04:20:39;;;;;;;3.15;1.27;;;;;;;9.70;79.37;100751.56;5067990;28;20040;-44
2023/10/17 04:23:05;;;;;;;2.67;1.40;;;;;;;9.72;79.70;100749.28;5059244;28;20044;-45
2023/10/17 04:25:37;;;;;;;23.20;3.33;;;;;;;9.73;79.62;100750.91;5060708;28;20107;-51
2023/10/17 04:28:04;;;;;;;3.90;1.08;;;;;;;9.71;79.45;100747.69;5062866;28;20048;-46
2023/10/17 04:30:46;;;;;;;5.43;1.45;;;;;;;9.70;79.66;100746.88;5061937;28;20060;-44
2023/10/17 04:33:13;;;;;;;5.63;1.10;;;;;;;9.71;79.66;100742.16;5067891;28;20429;-44
2023/10/17 04:35:55;;;;;;;2.00;1.30;;;;;;;9.71;79.63;100742.16;5048576;28;20135;-46
2023/10/17 04:43:45;;;;;;;2.80;1.13;;;;;;;9.67;79.77;100741.19;5063405;28;20045;-47
2023/10/17 04:46:12;;;;;;;7.43;1.58;;;;;;;9.68;79.67;100748.34;5062881;28;20052;-44
2023/10/17 04:48:46;;;;;;;5.97;1.20;;;;;;;9.68;80.04;100749.16;5061029;28;20132;-44
2023/10/17 04:53:49;;;;;;;4.43;1.00;;;;;;;9.70;79.79;100732.22;5063947;28;20040;-44
2023/10/17 04:56:18;;;;;;;6.55;1.63;;;;;;;9.71;79.75;100742.16;5066863;28;20070;-43
2023/10/17 05:04:17;;;;;;;6.97;1.80;;;;;;;9.70;79.73;100743.28;5042756;28;20110;-45
2023/10/17 06:18:07;;;;;;;0.80;0.80;;;;;;;9.56;81.46;100726.97;5066139;28;20490;-47
2023/10/17 06:24:06;;;;;;;9.95;2.40;;;;;;;9.56;81.75;100720.63;5056850;28;20478;-47
2023/10/17 06:34:19;;;;;;;5.15;1.05;;;;;;;9.55;82.49;100716.28;5064336;28;20513;-45
2023/10/17 06:36:50;;;;;;;4.93;0.95;;;;;;;9.56;82.14;100712.34;5063357;28;20372;-46
2023/10/17 06:39:24;;;;;;;2.00;1.08;;;;;;;9.56;82.33;100726.16;5063391;28;20076;-47
2023/10/17 06:42:14;;;;;;;5.35;1.30;;;;;;;9.55;82.69;100735.63;5060717;28;20041;-46
2023/10/17 06:44:54;;;;;;;2.92;1.00;;;;;;;9.55;82.37;100738.38;5066674;28;20052;-45
2023/10/17 06:47:31;;;;;;;4.32;1.63;;;;;;;9.54;82.50;100731.22;5053668;28;20053;-43
2023/10/17 06:55:21;;;;;;;4.05;1.27;;;;;;;9.51;82.73;100720.84;5069270;28;20140;-45
2023/10/17 06:57:52;;;;;;;6.85;1.30;;;;;;;9.49;82.99;100726.72;5069735;28;20052;-47
2023/10/17 07:00:42;;;;;;;5.50;1.00;;;;;;;9.51;83.07;100720.84;5056513;28;20048;-47
2023/10/17 07:03:13;;;;;;;4.28;1.20;;;;;;;9.52;83.10;100714.19;5065937;28;21180;-46
2023/10/17 07:05:42;;;;;;;4.38;0.95;;;;;;;9.54;83.15;100717.41;5068060;28;20067;-47
2023/10/17 07:08:14;;;;;;;4.97;1.33;;;;;;;9.56;82.96;100706.81;5055964;28;20041;-46
2023/10/17 07:10:58;;;;;;;1.67;1.15;;;;;;;9.57;83.06;100713.97;5069428;28;20044;-47
2023/10/17 07:13:54;;;;;;;2.47;1.50;;;;;;;9.58;83.08;100729.44;5051016;28;20081;-44
2023/10/17 07:16:25;;;;;;;4.47;1.15;;;;;;;9.57;83.11;100719.50;5062135;28;20067;-44
2023/10/17 07:18:54;;;;;;;2.47;1.00;;;;;;;9.61;83.19;100731.50;5068796;28;20056;-45
2023/10/17 07:21:24;;;;;;;2.63;1.05;;;;;;;9.62;83.40;100722.06;5051662;28;20045;-45
2023/10/17 07:23:56;;;;;;;7.00;2.38;;;;;;;9.65;83.32;100724.16;5067614;28;20037;-48
2023/10/17 07:28:56;;;;;;;4.50;1.25;;;;;;;9.70;83.63;100724.75;5067158;28;20756;-44
2023/10/17 07:31:23;;;;;;;5.13;1.83;;;;;;;9.74;83.35;100719.34;5064752;28;20060;-47
2023/10/17 07:34:06;;;;;;;8.80;1.88;;;;;;;9.76;83.65;100715.09;5069030;28;20147;-48
2023/10/17 07:36:34;;;;;;;3.55;1.30;;;;;;;9.82;83.49;100715.69;5068711;28;20048;-48
2023/10/17 07:39:16;;;;;;;9.27;1.42;;;;;;;9.86;83.45;100722.16;5065192;28;20387;-45
2023/10/17 07:41:52;;;;;;;4.03;1.60;;;;;;;9.90;83.46;100712.00;5064954;28;20505;-45
2023/10/17 07:44:25;;;;;;;7.00;1.35;;;;;;;9.98;83.48;100718.63;5048572;28;20139;-45
2023/10/17 07:49:42;;;;;;;12.35;2.92;;;;;;;10.09;83.22;100714.25;5053081;28;20493;-46
2023/10/17 07:52:16;;;;;;;3.83;1.10;;;;;;;10.13;83.32;100715.22;5061082;28;20056;-48
2023/10/17 07:54:55;;;;;;;3.22;1.23;;;;;;;10.16;83.44;100703.47;5049684;28;20413;-47
2023/10/17 07:57:25;;;;;;;5.70;1.80;;;;;;;10.18;83.46;100701.97;5063335;28;20379;-45
2023/10/17 07:59:56;;;;;;;4.50;2.50;;;;;;;10.19;83.58;100700.81;5053771;28;20571;-45
2023/10/17 08:02:30;;;;;;;6.07;1.55;;;;;;;10.21;83.70;100701.28;5063607;28;20055;-45
2023/10/17 08:05:17;;;;;;;7.75;1.58;;;;;;;10.24;83.94;100700.63;5066298;28;20044;-47
2023/10/17 08:07:49;;;;;;;6.75;1.45;;;;;;;10.28;83.88;100696.00;5049763;28;20069;-45
2023/10/17 08:10:29;;;;;;;5.03;1.30;;;;;;;10.31;84.02;100695.31;5065752;28;20098;-47
2023/10/17 08:13:00;;;;;;;4.78;1.20;;;;;;;10.34;84.07;100689.09;5065872;28;20080;-45
2023/10/17 08:15:38;;;;;;;8.02;3.05;;;;;;;10.36;84.14;100675.72;5064550;28;20096;-45
2023/10/17 08:18:14;;;;;;;6.55;1.20;;;;;;;10.40;84.12;100690.47;5066264;28;20052;-46
2023/10/17 08:20:54;;;;;;;5.10;1.00;;;;;;;10.44;84.40;100689.78;5066535;28;20479;-45
2023/10/17 08:23:22;;;;;;;4.55;1.40;;;;;;;10.48;84.32;100690.72;5062986;28;20041;-46
2023/10/17 08:25:56;;;;;;;3.70;1.33;;;;;;;10.51;84.31;100692.78;5065152;28;20040;-48
2023/10/17 08:31:36;;;;;;;4.20;1.55;;;;;;;10.60;84.52;100685.16;5052724;28;20049;-56
2023/10/17 08:36:53;;;;;;;5.28;2.33;;;;;;;10.67;84.38;100677.09;5065382;28;20079;-44
2023/10/17 08:42:05;;;;;;;4.80;1.70;;;;;;;10.73;84.61;100672.91;5064290;28;20137;-49
2023/10/17 08:44:38;;;;;;;12.32;1.83;;;;;;;10.76;84.58;100673.03;5066614;28;20055;-55
2023/10/17 08:47:07;;;;;;;4.13;1.80;;;;;;;10.81;84.64;100669.22;5064587;28;20044;-45
2023/10/17 08:49:34;;;;;;;8.90;1.63;;;;;;;10.84;84.60;100666.56;5066668;28;20072;-46
2023/10/17 08:52:03;;;;;;;9.57;2.10;;;;;;;10.88;84.57;100669.47;5066512;28;20056;-48
2023/10/17 08:54:30;;;;;;;7.25;1.63;;;;;;;10.92;84.66;100664.81;5063927;28;20036;-47
2023/10/17 08:57:00;;;;;;;8.73;2.38;;;;;;;10.96;84.47;100661.00;5024346;28;20049;-44
2023/10/17 09:05:00;;;;;;;7.35;1.67;;;;;;;11.10;84.40;100660.63;5064885;28;20135;-45
2023/10/17 09:07:41;;;;;;;5.65;3.53;;;;;;;11.15;84.47;100652.06;5065788;28;20048;-44
2023/10/17 09:10:20;;;;;;;6.93;1.95;;;;;;;11.21;84.32;100655.38;5055226;28;20118;-46
2023/10/17 09:16:10;;;;;;;8.45;1.90;;;;;;;11.29;84.25;100646.94;4983570;28;20050;-47
2023/10/17 09:18:40;;;;;;;5.55;1.70;;;;;;;11.33;84.16;100645.06;5047338;28;20118;-44
2023/10/17 09:21:08;;;;;;;3.92;1.40;;;;;;;11.35;83.88;100645.53;5065437;28;20064;-44
2023/10/17 09:23:38;;;;;;;2.70;1.65;;;;;;;11.38;83.82;100644.84;5066126;28;20049;-44
2023/10/17 09:26:10;;;;;;;5.82;1.52;;;;;;;11.41;83.79;100644.09;5064129;28;20037;-44
2023/10/17 09:28:39;;;;;;;5.67;1.70;;;;;;;11.45;83.59;100639.47;5064565;28;20561;-50
2023/10/17 09:31:08;;;;;;;3.95;1.55;;;;;;;11.51;83.58;100642.81;5065893;28;20383;-47
2023/10/17 09:33:43;;;;;;;2.55;1.30;;;;;;;11.56;83.38;100637.00;5065041;28;20463;-49
2023/10/17 09:36:18;;;;;;;5.57;1.80;;;;;;;11.60;83.28;100641.47;5041553;28;20052;-47
2023/10/17 09:38:47;;;;;;;5.78;1.60;;;;;;;11.61;83.07;100642.28;5064169;28;20891;-46
2023/10/17 09:41:18;;;;;;;4.93;1.83;;;;;;;11.65;82.96;100643.19;5064631;28;20045;-44
2023/10/17 09:43:51;;;;;;;4.10;1.30;;;;;;;11.67;82.81;100635.34;5065314;28;20041;-45
2023/10/17 09:46:23;;;;;;;;;;;;;;;11.66;82.84;100630.13;5065144;28;20036;-45
2023/10/17 09:48:51;;;;;;;;;;;;;;;11.67;82.60;100640.06;5065485;28;19920;-46
2023/10/17 09:51:26;;;;;;;3.78;1.17;;;;;;;11.69;82.62;100630.25;5062551;28;19948;-47
2023/10/17 09:53:58;;;;;;;2.13;1.27;;;;;;;11.75;82.54;100628.03;5058399;28;20521;-45
2023/10/17 09:56:28;;;;;;;2.58;1.30;;;;;;;11.78;82.14;100624.56;5064265;28;20056;-46
2023/10/17 09:59:11;;;;;;;2.45;1.38;;;;;;;11.82;82.03;100620.69;5065242;28;20044;-46
2023/10/17 10:01:41;;;;;;;5.20;1.52;;;;;;;11.86;81.86;100620.81;5064242;28;20048;-44
2023/10/17 10:04:08;;;;;;;3.60;1.58;;;;;;;11.91;81.91;100624.13;5065317;28;20045;-46
2023/10/17 10:06:36;;;;;;;6.25;1.67;;;;;;;11.96;81.79;100620.28;5065055;28;20044;-45
2023/10/17 10:09:26;;;;;;;7.75;2.30;;;;;;;11.99;81.48;100609.25;5064147;28;20843;-46
2023/10/17 10:11:55;;;;;;;4.80;1.48;;;;;;;12.01;81.39;100603.34;5060939;28;20048;-46
2023/10/17 10:14:23;;;;;;;3.47;1.35;;;;;;;12.03;81.34;100609.34;5046160;28;20040;-45
2023/10/17 10:16:54;;;;;;;6.25;1.90;;;;;;;12.03;81.28;100607.38;5064113;28;20036;-47
2023/10/17 10:19:44;;;;;;;5.38;1.63;;;;;;;12.01;80.84;100597.81;5061949;28;20525;-46
2023/10/17 10:22:12;;;;;;;4.68;1.58;;;;;;;12.02;80.71;100594.66;5045010;28;20134;-46
2023/10/17 10:24:42;;;;;;;6.55;1.63;;;;;;;12.02;80.52;100604.97;5065529;28;20139;-49
2023/10/17 10:27:15;;;;;;;4.43;1.70;;;;;;;12.02;80.52;100596.66;5066755;28;20052;-54
2023/10/17 10:29:44;;;;;;;4.28;1.48;;;;;;;12.02;80.28;100593.88;5065886;28;20818;-46
2023/10/17 10:32:35;;;;;;;4.28;1.80;;;;;;;12.02;80.05;100580.78;5068270;28;20134;-45
2023/10/17 10:35:05;;;;;;;5.75;1.85;;;;;;;12.05;79.99;100584.81;5068985;28;20042;-45
2023/10/17 10:37:48;;;;;;;2.80;1.42;;;;;;;12.07;79.85;100574.97;5067310;28;20055;-48
2023/10/17 10:40:22;;;;;;;4.78;1.65;;;;;;;12.12;79.89;100591.38;5055925;28;20045;-44
2023/10/17 10:42:56;;;;;;;7.10;1.17;;;;;;;12.13;79.61;100578.25;5049830;28;20050;-49
2023/10/17 10:45:47;;;;;;;6.30;1.70;;;;;;;12.13;79.33;100576.31;5068342;28;20486;-51
2023/10/17 10:48:16;;;;;;;3.15;1.48;;;;;;;12.14;79.33;100577.94;5045093;28;20048;-47
2023/10/17 10:50:46;;;;;;;4.80;1.35;;;;;;;12.14;79.34;100566.00;5065053;28;20036;-48
2023/10/17 10:53:29;;;;;;;4.50;0.98;;;;;;;12.15;79.25;100571.19;5067516;28;20109;-48
2023/10/17 10:56:02;;;;;;;6.25;1.85;;;;;;;12.15;78.88;100562.88;5067916;28;20854;-47
2023/10/17 10:58:31;;;;;;;5.72;1.77;;;;;;;12.16;78.96;100575.59;5063267;28;20155;-49
2023/10/17 11:00:59;;;;;;;4.68;1.88;;;;;;;12.15;78.85;100567.63;5059096;28;20398;-48
2023/10/17 11:03:26;;;;;;;85.70;12.85;;;;;;;12.15;78.91;100568.41;5067565;28;20048;-46
2023/10/17 11:06:07;;;;;;;7.28;2.05;;;;;;;12.16;78.87;100558.94;5066839;28;20184;-49
2023/10/17 11:08:41;;;;;;;6.07;2.08;;;;;;;12.18;78.60;100550.25;5063685;28;20044;-43
2023/10/17 11:11:16;;;;;;;6.47;2.20;;;;;;;12.21;78.73;100546.75;5067213;28;20470;-48
2023/10/17 11:13:56;;;;;;;14.18;1.92;;;;;;;12.23;78.42;100553.53;5067141;28;20146;-49
2023/10/17 11:16:26;;;;;;;8.45;2.30;;;;;;;12.25;78.57;100533.78;5047433;28;20056;-44
2023/10/17 11:18:54;;;;;;;6.68;1.95;;;;;;;12.27;78.31;100548.09;5066168;28;20052;-45
2023/10/17 11:21:22;;;;;;;7.82;2.10;;;;;;;12.27;78.26;100538.94;5047889;28;20036;-48
2023/10/17 11:23:54;;;;;;;9.48;2.58;;;;;;;12.27;78.31;100536.97;5049360;28;20052;-48
2023/10/17 11:26:28;;;;;;;4.88;1.80;;;;;;;12.29;78.31;100534.63;5049718;28;20040;-44
2023/10/17 11:28:57;;;;;;;9.40;2.38;;;;;;;12.31;78.29;100532.31;5060822;28;20033;-47
2023/10/17 11:31:25;;;;;;;5.03;2.35;;;;;;;12.30;78.03;100530.72;5067090;28;20044;-46
2023/10/17 11:34:12;;;;;;;2.85;1.73;;;;;;;12.32;77.94;100522.00;5067490;28;20035;-44
2023/10/17 11:36:45;;;;;;;12.88;2.55;;;;;;;12.32;78.05;100522.81;5053017;28;20707;-45
2023/10/17 11:39:16;;;;;;;3.70;1.60;;;;;;;12.36;77.93;100511.81;5065183;28;20051;-45
2023/10/17 11:41:53;;;;;;;7.13;1.80;;;;;;;12.39;77.91;100514.63;5055217;28;20465;-46
2023/10/17 11:44:24;;;;;;;7.40;2.47;;;;;;;12.40;77.95;100505.16;5058605;28;20139;-47
2023/10/17 11:47:26;;;;;;;5.35;2.47;;;;;;;12.38;77.56;100501.94;5065603;28;20044;-46
2023/10/17 11:49:47;;;;;;;9.55;2.78;;;;;;;12.40;77.59;100494.06;5063721;28;20048;-47
2023/10/17 11:52:15;;;;;;;5.15;2.00;;;;;;;12.39;77.67;100488.88;5049537;28;20137;-48
2023/10/17 11:55:00;;;;;;;10.95;1.70;;;;;;;12.39;77.55;100494.44;5068478;28;20045;-45
2023/10/17 11:57:31;;;;;;;4.72;2.00;;;;;;;12.41;77.50;100492.88;5067337;28;20090;-46
2023/10/17 12:02:47;;;;;;;8.80;1.95;;;;;;;12.38;77.50;100487.25;5059536;28;20071;-47
2023/10/17 12:05:18;;;;;;;8.50;2.58;;;;;;;12.35;77.59;100482.41;5062951;28;20650;-46
2023/10/17 12:07:57;;;;;;;8.07;2.13;;;;;;;12.31;77.63;100479.56;5065071;28;20048;-51
2023/10/17 12:10:24;;;;;;;13.32;2.95;;;;;;;12.31;77.68;100476.78;5066773;28;20090;-45
2023/10/17 12:12:58;;;;;;;13.68;2.97;;;;;;;12.30;77.67;100475.19;5064933;28;20136;-47
2023/10/17 12:15:26;;;;;;;11.10;2.53;;;;;;;12.30;77.96;100455.75;5058532;28;20427;-49
2023/10/17 12:17:53;;;;;;;6.63;2.22;;;;;;;12.33;78.03;100457.81;5064829;28;20689;-46
2023/10/17 12:20:25;;;;;;;6.22;2.20;;;;;;;12.35;77.86;100466.56;5064765;28;20101;-45
2023/10/17 12:22:57;;;;;;;11.00;2.70;;;;;;;12.34;77.80;100448.31;5065968;28;20590;-46
2023/10/17 12:25:24;;;;;;;9.53;2.40;;;;;;;12.36;77.67;100436.84;5036981;28;20122;-50
2023/10/17 12:27:52;;;;;;;11.52;3.17;;;;;;;12.33;77.80;100440.34;5063783;28;20384;-50
2023/10/17 12:30:24;;;;;;;7.20;2.78;;;;;;;12.34;77.72;100442.75;5048741;28;20494;-47
2023/10/17 12:32:51;;;;;;;7.22;2.55;;;;;;;12.34;77.54;100437.19;5066676;28;20044;-47
2023/10/17 12:35:21;;;;;;;9.93;2.80;;;;;;;12.37;77.73;100428.13;5061666;28;20048;-49
2023/10/17 12:37:52;;;;;;;11.07;2.10;;;;;;;12.40;77.70;100419.09;5063212;28;20114;-45
2023/10/17 12:40:19;;;;;;;11.38;2.75;;;;;;;12.41;77.45;100417.94;5062139;28;20076;-48
2023/10/17 12:42:46;;;;;;;4.22;2.20;;;;;;;12.43;77.68;100417.56;5048542;28;20080;-46
2023/10/17 12:45:20;;;;;;;11.70;2.53;;;;;;;12.45;77.63;100409.66;5053023;28;20053;-47
2023/10/17 12:47:48;;;;;;;11.98;2.40;;;;;;;12.45;77.55;100404.91;5062767;28;20419;-47
2023/10/17 12:50:18;;;;;;;10.43;3.55;;;;;;;12.46;77.31;100392.66;5065013;28;20044;-52
2023/10/17 12:52:46;;;;;;;5.90;2.50;;;;;;;12.47;77.46;100393.47;5048042;28;20044;-46
2023/10/17 12:55:13;;;;;;;6.93;2.42;;;;;;;12.47;77.34;100391.47;5065530;28;20040;-46
2023/10/17 12:57:43;;;;;;;5.93;2.83;;;;;;;12.49;77.36;100389.13;5065562;28;20133;-48
2023/10/17 13:00:11;;;;;;;7.75;2.40;;;;;;;12.48;77.41;100387.53;5066551;28;20056;-47
2023/10/17 13:02:39;;;;;;;9.65;2.53;;;;;;;12.49;77.38;100375.25;5065915;28;20139;-48
2023/10/17 13:05:10;;;;;;;9.68;2.35;;;;;;;12.48;77.06;100370.88;5058256;28;20049;-46
2023/10/17 13:07:40;;;;;;;7.43;2.70;;;;;;;12.46;76.69;100362.09;5064533;28;20076;-49
2023/10/17 13:10:08;;;;;;;8.65;2.88;;;;;;;12.47;76.69;100366.47;5065978;28;20044;-49
2023/10/17 13:12:35;;;;;;;7.20;2.83;;;;;;;12.48;76.82;100359.75;5065464;28;20051;-46
2023/10/17 13:15:06;;;;;;;7.10;2.35;;;;;;;12.47;76.72;100347.03;5065185;28;20453;-45
2023/10/17 13:17:33;;;;;;;7.32;2.28;;;;;;;12.47;76.62;100349.03;5064074;28;20059;-48
2023/10/17 13:20:07;;;;;;;7.72;2.78;;;;;;;12.46;76.76;100345.44;5065151;28;20052;-47
2023/10/17 13:22:46;;;;;;;5.82;2.83;;;;;;;12.50;76.63;100339.94;5062214;28;20033;-45
2023/10/17 13:25:14;;;;;;;6.15;2.42;;;;;;;12.52;76.87;100332.06;5057871;28;20052;-46
2023/10/17 13:27:41;;;;;;;13.15;3.92;;;;;;;12.51;76.73;100336.00;5064675;28;20048;-47
2023/10/17 13:30:08;;;;;;;9.75;2.80;;;;;;;12.50;76.56;100326.88;5046779;28;20048;-46
2023/10/17 13:32:35;;;;;;;4.55;1.83;;;;;;;12.50;76.64;100324.09;5064227;28;20219;-45
2023/10/17 13:35:02;;;;;;;8.80;2.65;;;;;;;12.51;76.60;100319.34;5029613;28;20098;-49
2023/10/17 13:37:29;;;;;;;9.25;3.42;;;;;;;12.51;76.46;100317.38;5064393;28;20458;-51
2023/10/17 13:39:55;;;;;;;8.02;2.25;;;;;;;12.49;76.24;100316.13;5060063;28;20090;-47
2023/10/17 13:42:25;;;;;;;5.68;1.90;;;;;;;12.48;76.12;100309.78;5064388;28;20056;-50
2023/10/17 13:44:53;;;;;;;6.30;2.80;;;;;;;12.48;76.14;100309.78;5064807;28;20118;-49
2023/10/17 13:47:20;;;;;;;11.93;2.65;;;;;;;12.47;76.10;100308.16;5044272;28;20464;-45
2023/10/17 13:49:48;;;;;;;5.78;2.80;;;;;;;12.48;75.99;100297.88;5063292;28;20052;-49
2023/10/17 13:52:17;;;;;;;8.63;2.35;;;;;;;12.47;75.96;100297.06;5058046;28;20442;-46
2023/10/17 13:54:46;;;;;;;8.65;2.90;;;;;;;12.48;76.03;100287.56;5046347;28;20045;-46
2023/10/17 13:57:16;;;;;;;6.03;2.20;;;;;;;12.47;75.97;100288.72;5045432;28;20052;-46
2023/10/17 13:59:53;;;;;;;11.48;2.28;;;;;;;12.47;75.77;100274.84;5064623;28;20068;-48
2023/10/17 14:02:20;;;;;;;8.45;2.70;;;;;;;12.46;75.77;100281.59;5063811;28;20051;-44
2023/10/17 14:04:47;;;;;;;4.90;2.28;;;;;;;12.47;75.85;100274.84;5052826;28;20051;-48
2023/10/17 14:07:15;;;;;;;6.82;2.63;;;;;;;12.47;75.85;100272.06;5064425;28;20139;-47
2023/10/17 14:09:42;;;;;;;6.72;2.00;;;;;;;12.48;75.85;100273.69;5064854;28;20102;-47
2023/10/17 14:12:09;;;;;;;9.63;3.08;;;;;;;12.50;75.78;100267.75;5064638;28;20056;-54